Time;durP1;ratioP1;P1;durP2;ratioP2;P2;SDS_P1;SDS_P2;PMS_P1;PMS_P2;Temp;Humidity;BMP_temperature;BMP_pressure;BME280_temperature;BME280_humidity;BME280_pressure;Samples;Min_cycle;Max_cycle;Signal;HPM_P1;HPM_P2
2022/12/15 00:40:43;;;;;;;;;;;2.70;95.50;;;;;;10396423;28;20022;-63
2022/12/15 00:51:03;;;;;;;9.82;4.18;;;2.90;95.50;;;;;;10404019;28;20026;-61
2022/12/15 01:22:41;;;;;;;9.35;4.72;;;3.80;95.70;;;;;;10403564;28;19917;-61
2022/12/15 01:27:43;;;;;;;8.88;4.72;;;2.50;95.50;;;;;;10396006;28;20056;-61
2022/12/15 01:32:43;;;;;;;9.82;4.53;;;3.80;95.80;;;;;;10401298;28;20535;-61
2022/12/15 01:37:45;;;;;;;9.68;4.68;;;2.50;95.50;;;;;;10403320;28;20042;-61
2022/12/15 01:42:46;;;;;;;9.07;4.38;;;2.50;95.50;;;;;;10403192;28;20032;-61
2022/12/15 01:47:46;;;;;;;8.38;4.85;;;2.50;95.50;;;;;;10402592;28;20473;-63
2022/12/15 01:52:48;;;;;;;8.82;4.60;;;2.50;95.50;;;;;;10402664;28;20041;-62
2022/12/15 01:57:53;;;;;;;7.25;4.22;;;3.50;95.70;;;;;;10401183;28;20104;-61
2022/12/15 02:02:55;;;;;;;8.55;4.05;;;3.40;95.70;;;;;;10400123;28;20052;-61
2022/12/15 02:07:57;;;;;;;9.30;4.70;;;2.80;95.60;;;;;;10398625;28;20029;-61
2022/12/15 02:13:07;;;;;;;8.52;4.55;;;3.10;95.60;;;;;;10380000;28;20168;-62
2022/12/15 02:18:26;;;;;;;9.13;4.22;;;2.50;95.50;;;;;;10400869;28;20029;-61
2022/12/15 02:24:02;;;;;;;6.65;3.80;;;2.50;95.50;;;;;;10400944;28;20456;-63
2022/12/15 02:29:08;;;;;;;7.25;3.83;;;2.50;95.50;;;;;;10400247;28;20063;-61
2022/12/15 02:34:36;;;;;;;7.88;4.75;;;2.50;95.50;;;;;;10400199;28;20040;-61
2022/12/15 02:39:36;;;;;;;7.30;3.70;;;2.50;95.40;;;;;;10387896;28;20402;-60
2022/12/15 02:44:42;;;;;;;8.50;4.60;;;2.70;95.50;;;;;;10399493;28;20036;-61
2022/12/15 02:50:07;;;;;;;8.13;4.15;;;2.50;95.50;;;;;;10400196;28;20018;-61
2022/12/15 02:55:23;;;;;;;9.32;4.40;;;2.50;95.40;;;;;;10398234;28;20306;-63
2022/12/15 03:00:23;;;;;;;10.75;4.63;;;2.50;95.50;;;;;;10397121;28;20037;-61
2022/12/15 03:05:25;;;;;;;8.52;3.95;;;3.60;95.70;;;;;;10396365;28;20056;-63
2022/12/15 03:10:25;;;;;;;8.30;4.05;;;2.80;95.50;;;;;;10395877;28;20038;-62
2022/12/15 03:15:26;;;;;;;10.95;4.45;;;2.80;95.50;;;;;;10395924;28;20050;-61
2022/12/15 03:20:27;;;;;;;9.13;3.88;;;2.40;95.50;;;;;;10395669;28;20056;-62
2022/12/15 03:25:28;;;;;;;8.07;4.00;;;2.70;95.50;;;;;;10395566;28;20030;-61
2022/12/15 03:30:29;;;;;;;12.00;4.45;;;2.70;95.50;;;;;;10395833;28;20030;-68
2022/12/15 03:35:30;;;;;;;7.85;4.50;;;3.70;95.80;;;;;;10398772;28;20044;-61
2022/12/15 03:40:31;;;;;;;8.52;3.78;;;2.40;95.50;;;;;;10398150;28;20029;-61
2022/12/15 03:45:31;;;;;;;6.57;3.70;;;2.70;95.50;;;;;;10398483;28;20025;-61
2022/12/15 03:50:32;;;;;;;7.28;3.42;;;2.80;95.60;;;;;;10398223;28;20037;-61
2022/12/15 03:55:34;;;;;;;7.68;4.57;;;2.40;95.40;;;;;;10397896;28;20127;-61
2022/12/15 04:00:34;;;;;;;7.85;3.80;;;2.80;95.50;;;;;;10396917;28;20132;-62
2022/12/15 04:05:36;;;;;;;8.82;4.20;;;2.80;95.60;;;;;;10397623;28;20030;-68
2022/12/15 04:10:37;;;;;;;8.95;3.95;;;3.00;95.60;;;;;;10397945;28;20383;-68
2022/12/15 04:15:39;;;;;;;9.88;4.00;;;2.40;95.40;;;;;;10397428;28;20297;-67
2022/12/15 04:20:40;;;;;;;10.25;4.18;;;3.60;95.70;;;;;;10396636;28;20466;-62
2022/12/15 05:35:03;;;;;;;8.30;3.95;;;2.30;95.40;;;;;;10401282;28;20053;-61
2022/12/15 05:40:10;;;;;;;7.40;3.55;;;2.30;95.40;;;;;;10400578;28;20226;-61
2022/12/15 05:45:10;;;;;;;9.80;4.03;;;2.30;95.40;;;;;;10402828;28;20485;-61
2022/12/15 05:50:11;;;;;;;7.30;3.22;;;2.30;95.40;;;;;;10402112;28;20033;-61
2022/12/15 05:55:12;;;;;;;8.27;3.92;;;2.30;95.40;;;;;;10402474;28;20065;-61
2022/12/15 06:00:13;;;;;;;8.02;3.75;;;2.30;95.40;;;;;;10401983;28;20036;-61
2022/12/15 06:05:14;;;;;;;6.20;2.90;;;2.30;95.70;;;;;;10401554;28;20401;-61
2022/12/15 06:10:14;;;;;;;8.40;3.80;;;2.30;95.40;;;;;;10399708;28;20382;-61
2022/12/15 06:15:15;;;;;;;6.15;3.47;;;2.30;95.40;;;;;;10399733;28;20037;-61
2022/12/15 06:20:16;;;;;;;6.82;3.38;;;2.30;95.40;;;;;;10400946;28;20027;-61
2022/12/15 06:25:17;;;;;;;6.88;3.25;;;2.60;95.50;;;;;;10401449;28;20034;-68
2022/12/15 06:30:18;;;;;;;6.13;3.25;;;3.10;95.60;;;;;;10398738;28;20029;-62
2022/12/15 06:35:18;;;;;;;7.78;3.75;;;3.80;95.80;;;;;;10398547;28;20213;-62
2022/12/15 06:40:19;;;;;;;7.07;3.58;;;2.90;95.60;;;;;;10400469;28;20025;-62
2022/12/15 06:45:19;;;;;;;7.28;3.50;;;2.40;95.40;;;;;;10395898;28;20029;-62
2022/12/15 06:50:20;;;;;;;7.28;3.55;;;2.30;95.70;;;;;;10396984;28;20040;-62
2022/12/15 06:55:21;;;;;;;8.77;3.95;;;3.40;95.70;;;;;;10399538;28;20034;-61
2022/12/15 07:00:21;;;;;;;6.13;3.72;;;3.10;95.60;;;;;;10400249;28;20033;-61
2022/12/15 07:05:22;;;;;;;6.25;3.38;;;2.40;95.40;;;;;;10390632;28;20712;-66
2022/12/15 07:10:23;;;;;;;6.55;3.42;;;2.20;95.40;;;;;;10399053;28;20030;-61
2022/12/15 07:15:24;;;;;;;5.85;3.42;;;2.60;95.50;;;;;;10398548;28;20122;-61
2022/12/15 07:20:24;;;;;;;6.93;3.40;;;2.70;95.50;;;;;;10398210;28;20112;-63
2022/12/15 07:25:25;;;;;;;5.90;3.40;;;2.50;95.40;;;;;;10398602;28;20100;-61
2022/12/15 07:30:26;;;;;;;5.20;3.20;;;2.80;95.50;;;;;;10397702;28;20017;-62
2022/12/15 07:35:27;;;;;;;6.55;3.20;;;2.30;95.40;;;;;;10380281;28;20038;-61
2022/12/15 07:40:28;;;;;;;6.60;3.50;;;2.30;95.40;;;;;;10398264;28;20030;-61
2022/12/15 07:45:29;;;;;;;5.57;3.10;;;2.90;95.50;;;;;;10397752;28;20542;-62
2022/12/15 07:50:29;;;;;;;5.28;3.08;;;2.30;95.40;;;;;;10397585;28;20083;-61
2022/12/15 07:55:31;;;;;;;7.47;3.47;;;2.50;95.40;;;;;;10377695;28;20740;-61
2022/12/15 08:00:32;;;;;;;5.15;2.85;;;4.10;95.80;;;;;;10301075;28;20549;-63
2022/12/15 08:05:32;;;;;;;7.00;3.42;;;2.70;95.50;;;;;;10294079;28;20568;-61
2022/12/15 08:10:37;;;;;;;6.18;2.90;;;2.70;95.50;;;;;;10298920;28;20030;-61
2022/12/15 08:15:40;;;;;;;6.88;3.65;;;2.30;95.40;;;;;;10297554;28;20060;-62
2022/12/15 08:20:41;;;;;;;5.28;3.13;;;2.30;95.40;;;;;;10302953;28;20030;-61
2022/12/15 08:25:41;;;;;;;6.82;3.30;;;2.40;95.60;;;;;;10300257;28;20025;-60
2022/12/15 08:30:43;;;;;;;6.72;3.15;;;2.30;95.30;;;;;;10294496;28;20422;-61
2022/12/15 08:35:43;;;;;;;6.25;3.10;;;2.40;95.30;;;;;;10295067;28;20049;-62
2022/12/15 08:40:44;;;;;;;6.88;3.03;;;2.40;95.30;;;;;;10299791;28;20045;-62
2022/12/15 08:45:45;;;;;;;7.05;3.17;;;2.60;95.30;;;;;;10291153;28;20022;-61
2022/12/15 08:50:46;;;;;;;5.15;2.90;;;4.10;95.70;;;;;;10306361;28;20530;-63
2022/12/15 08:55:46;;;;;;;7.22;3.42;;;3.00;95.40;;;;;;10316287;28;20533;-62
2022/12/15 09:00:47;;;;;;;5.13;2.63;;;2.50;95.30;;;;;;10328614;28;20033;-61
2022/12/15 09:05:49;;;;;;;5.85;3.22;;;3.20;95.70;;;;;;10304806;28;20468;-61
2022/12/15 09:10:50;;;;;;;5.53;3.13;;;2.60;95.40;;;;;;10319617;28;20548;-61
2022/12/15 09:15:58;;;;;;;6.53;3.40;;;2.70;95.30;;;;;;10304582;28;20441;-60
2022/12/15 09:21:05;;;;;;;7.23;3.60;;;2.70;95.70;;;;;;10290214;28;20430;-61
2022/12/15 09:26:11;;;;;;;8.95;4.00;;;3.00;95.50;;;;;;10304818;28;20030;-61
2022/12/15 09:31:23;;;;;;;9.75;4.20;;;2.90;95.40;;;;;;10286371;28;20858;-61
2022/12/15 09:36:25;;;;;;;6.75;3.58;;;3.00;95.50;;;;;;10306220;28;20041;-60
2022/12/15 09:41:30;;;;;;;6.72;3.45;;;3.60;95.80;;;;;;10304801;28;20033;-61
2022/12/15 09:46:43;;;;;;;8.25;4.22;;;4.10;95.80;;;;;;10306908;28;20044;-60
2022/12/15 09:51:52;;;;;;;5.95;3.50;;;3.10;95.60;;;;;;10306849;28;20083;-61
2022/12/15 09:56:56;;;;;;;7.93;3.50;;;3.20;95.90;;;;;;10297990;28;20426;-60
2022/12/15 10:02:22;;;;;;;5.57;3.33;;;3.20;95.80;;;;;;10304838;28;20464;-61
2022/12/15 10:07:40;;;;;;;11.32;3.38;;;3.10;95.80;;;;;;10313123;28;20092;-62
2022/12/15 10:12:43;;;;;;;8.05;2.80;;;3.40;95.80;;;;;;10306002;28;20276;-60
2022/12/15 10:17:51;;;;;;;8.13;3.30;;;3.80;95.90;;;;;;10310641;28;20029;-63
2022/12/15 10:22:54;;;;;;;7.55;3.60;;;4.40;96.00;;;;;;10312284;28;20040;-61
2022/12/15 10:28:29;;;;;;;5.85;3.05;;;3.20;95.70;;;;;;10303704;28;20191;-61
2022/12/15 10:33:38;;;;;;;5.45;2.33;;;3.20;95.70;;;;;;10303853;28;20057;-62
2022/12/15 10:38:44;;;;;;;4.97;2.70;;;3.20;95.70;;;;;;10309762;28;20060;-62
2022/12/15 10:43:50;;;;;;;7.88;3.17;;;3.20;95.60;;;;;;10312695;28;20494;-61
2022/12/15 10:49:18;;;;;;;6.05;2.90;;;3.30;95.60;;;;;;10306842;28;20029;-62
2022/12/15 10:54:19;;;;;;;6.13;2.78;;;3.30;95.70;;;;;;10301088;28;20045;-61
2022/12/15 10:59:30;;;;;;;6.50;2.80;;;4.30;95.90;;;;;;10301829;28;20030;-62
2022/12/15 11:04:31;;;;;;;6.85;3.15;;;3.30;95.60;;;;;;10299993;28;20552;-61
2022/12/15 11:09:35;;;;;;;6.95;3.95;;;4.60;96.40;;;;;;10304498;28;20397;-61
2022/12/15 11:14:48;;;;;;;8.40;3.15;;;3.40;95.90;;;;;;10312191;28;20120;-61
2022/12/15 11:19:55;;;;;;;7.38;3.53;;;3.40;95.80;;;;;;10309144;28;20936;-61
2022/12/15 11:25:20;;;;;;;5.63;3.28;;;3.80;96.00;;;;;;10306149;28;21031;-61
2022/12/15 11:30:25;;;;;;;5.75;3.00;;;3.90;96.00;;;;;;10300857;28;20562;-61
2022/12/15 11:36:08;;;;;;;7.85;3.70;;;3.50;95.90;;;;;;10305655;28;20042;-62
2022/12/15 11:41:33;;;;;;;7.53;3.30;;;3.60;96.20;;;;;;10263934;28;21083;-63
2022/12/15 11:47:03;;;;;;;10.95;3.72;;;4.10;96.00;;;;;;10297268;28;20045;-62
2022/12/15 11:52:28;;;;;;;10.45;4.00;;;3.70;96.20;;;;;;10301141;28;20047;-62
2022/12/15 11:58:06;;;;;;;7.80;3.38;;;2.20;95.50;;;;;;10303060;28;20033;-64
2022/12/15 12:03:31;;;;;;;4.93;3.13;;;3.70;96.00;;;;;;10284355;28;20623;-64
2022/12/15 12:08:32;;;;;;;6.95;3.00;;;3.70;96.00;;;;;;10303790;28;20056;-63
2022/12/15 12:13:55;;;;;;;6.32;3.50;;;3.80;96.00;;;;;;10305826;28;20068;-62
2022/12/15 12:18:58;;;;;;;5.95;3.13;;;3.80;96.00;;;;;;10302717;28;20519;-64
2022/12/15 12:24:02;;;;;;;8.02;3.10;;;3.80;96.00;;;;;;10303597;28;20289;-64
2022/12/15 12:29:03;;;;;;;6.82;3.20;;;3.80;96.00;;;;;;10301574;28;20145;-62
2022/12/15 12:34:13;;;;;;;6.47;2.90;;;3.80;96.00;;;;;;10302256;28;20362;-62
2022/12/15 12:39:22;;;;;;;5.35;3.13;;;4.60;96.20;;;;;;10303710;28;20107;-62
2022/12/15 12:44:38;;;;;;;7.18;3.55;;;3.80;96.00;;;;;;10312437;28;20418;-62
2022/12/15 12:49:46;;;;;;;6.75;3.30;;;4.40;96.10;;;;;;10308703;28;20034;-67
2022/12/15 12:54:57;;;;;;;5.57;2.97;;;2.80;95.70;;;;;;10289788;28;20327;-62
2022/12/15 13:00:07;;;;;;;6.18;2.92;;;3.90;96.00;;;;;;10307935;28;20378;-63
2022/12/15 13:05:25;;;;;;;5.20;2.83;;;4.00;96.00;;;;;;10309500;28;20491;-62
2022/12/15 13:10:26;;;;;;;7.15;2.80;;;5.10;96.30;;;;;;10309078;28;20486;-62
2022/12/15 13:15:30;;;;;;;6.57;3.25;;;3.90;95.80;;;;;;10313363;28;20053;-62
2022/12/15 13:20:32;;;;;;;6.45;3.03;;;4.60;96.10;;;;;;10308347;28;20838;-63
2022/12/15 13:25:36;;;;;;;5.57;2.58;;;3.90;95.80;;;;;;10309592;28;20025;-63
2022/12/15 13:31:16;;;;;;;5.63;3.03;;;4.50;96.10;;;;;;10305808;28;20040;-62
2022/12/15 13:36:35;;;;;;;5.22;3.05;;;3.90;96.00;;;;;;10305158;28;20576;-62
2022/12/15 13:41:39;;;;;;;5.22;3.08;;;3.90;96.00;;;;;;10307922;28;20500;-64
2022/12/15 13:46:45;;;;;;;4.93;2.80;;;3.90;96.00;;;;;;10307688;28;20034;-64
2022/12/15 13:51:46;;;;;;;4.53;3.03;;;3.90;96.00;;;;;;10306306;28;20469;-63
2022/12/15 13:57:11;;;;;;;8.63;3.47;;;4.60;96.20;;;;;;10302554;28;20068;-60
2022/12/15 14:02:24;;;;;;;6.38;3.67;;;3.90;96.90;;;;;;10287229;28;20026;-66
2022/12/15 14:07:25;;;;;;;9.60;3.88;;;4.00;96.40;;;;;;10305832;28;20044;-62
2022/12/15 14:12:26;;;;;;;6.90;3.13;;;4.50;96.60;;;;;;10302569;28;20756;-60
2022/12/15 14:17:31;;;;;;;9.55;3.83;;;5.10;96.80;;;;;;10301947;28;20045;-62
2022/12/15 14:22:32;;;;;;;9.25;3.63;;;4.20;96.70;;;;;;10304165;28;20040;-62
2022/12/15 14:27:33;;;;;;;11.77;3.63;;;4.70;96.70;;;;;;10305225;28;20037;-62
2022/12/15 14:32:34;;;;;;;10.88;3.70;;;5.90;97.10;;;;;;10302889;28;20418;-61
2022/12/15 14:37:35;;;;;;;8.35;3.53;;;4.20;96.60;;;;;;10307238;28;20484;-63
2022/12/15 14:42:37;;;;;;;8.70;3.70;;;4.30;96.70;;;;;;10304023;28;20576;-65
2022/12/15 14:47:38;;;;;;;6.00;3.67;;;4.10;96.70;;;;;;10303743;28;20486;-62
2022/12/15 14:52:41;;;;;;;6.10;3.28;;;4.20;96.70;;;;;;10305349;28;20045;-61
2022/12/15 14:57:46;;;;;;;13.07;3.70;;;4.40;96.80;;;;;;10302584;28;20104;-65
2022/12/15 15:02:46;;;;;;;9.23;3.70;;;4.50;96.90;;;;;;10303663;28;20076;-63
2022/12/15 15:07:54;;;;;;;7.75;4.10;;;4.80;97.00;;;;;;10306044;28;20033;-64
2022/12/15 15:12:55;;;;;;;9.45;4.07;;;4.50;96.90;;;;;;10304137;28;20067;-66
2022/12/15 15:17:57;;;;;;;7.93;3.55;;;4.00;96.80;;;;;;10298686;28;20025;-64
2022/12/15 15:23:07;;;;;;;8.60;3.60;;;4.10;96.90;;;;;;10285692;28;20061;-60
2022/12/15 15:28:12;;;;;;;5.85;3.60;;;4.00;96.90;;;;;;10302848;28;20072;-62
2022/12/15 15:33:13;;;;;;;7.82;3.97;;;4.60;97.10;;;;;;10282540;28;20484;-62
2022/12/15 15:38:22;;;;;;;6.15;3.83;;;4.00;97.00;;;;;;10295172;28;20370;-62
2022/12/15 15:43:24;;;;;;;8.43;4.13;;;4.00;97.10;;;;;;10316985;28;20507;-62
2022/12/15 15:48:30;;;;;;;12.85;4.60;;;4.00;97.00;;;;;;10296873;28;20547;-62
2022/12/15 15:53:33;;;;;;;8.35;4.75;;;4.10;97.30;;;;;;10289473;28;20036;-63
2022/12/15 15:58:34;;;;;;;12.48;5.38;;;4.10;97.10;;;;;;10318535;28;20061;-61
2022/12/15 16:03:35;;;;;;;13.68;5.30;;;4.10;97.20;;;;;;10394663;28;20108;-61
2022/12/15 16:08:36;;;;;;;12.40;5.03;;;4.50;97.30;;;;;;10395060;28;20636;-62
2022/12/15 16:13:38;;;;;;;14.35;5.43;;;4.00;97.20;;;;;;10391522;28;20041;-63
2022/12/15 16:18:39;;;;;;;11.95;5.57;;;4.00;97.20;;;;;;10391460;28;20477;-63
2022/12/15 16:23:43;;;;;;;9.18;5.28;;;4.00;97.30;;;;;;10393261;28;20059;-62
2022/12/15 16:28:44;;;;;;;12.05;5.38;;;4.00;97.30;;;;;;10394974;28;20563;-63
2022/12/15 16:33:44;;;;;;;11.48;6.20;;;4.00;97.30;;;;;;10389489;28;20091;-63
2022/12/15 16:38:45;;;;;;;11.80;6.10;;;5.00;98.00;;;;;;10396681;28;20024;-63
2022/12/15 16:43:50;;;;;;;13.55;7.20;;;4.10;97.90;;;;;;10394402;28;20042;-65
2022/12/15 16:48:51;;;;;;;14.63;7.35;;;4.10;97.60;;;;;;10388467;28;20025;-66
2022/12/15 16:53:53;;;;;;;16.23;9.05;;;4.10;97.50;;;;;;10388543;28;20057;-61
2022/12/15 16:58:55;;;;;;;17.88;8.25;;;4.00;97.70;;;;;;10392985;28;20084;-62
2022/12/15 17:03:56;;;;;;;18.33;9.20;;;4.00;97.60;;;;;;10393188;28;20112;-62
2022/12/15 17:08:57;;;;;;;18.85;8.82;;;4.20;98.20;;;;;;10383342;28;20028;-62
2022/12/15 17:13:59;;;;;;;15.13;8.57;;;5.60;98.10;;;;;;10387984;28;20707;-62
2022/12/15 17:19:00;;;;;;;18.92;9.15;;;3.90;97.70;;;;;;10393337;28;20443;-63
2022/12/15 17:24:05;;;;;;;18.65;9.70;;;3.90;97.80;;;;;;10390416;28;20067;-63
2022/12/15 17:29:12;;;;;;;16.70;9.25;;;3.90;97.80;;;;;;10396272;28;20037;-62
2022/12/15 17:34:24;;;;;;;18.35;9.48;;;3.90;97.90;;;;;;10381812;28;20528;-64
2022/12/15 17:39:25;;;;;;;19.13;8.40;;;3.90;97.80;;;;;;10401751;28;20539;-63
2022/12/15 17:44:29;;;;;;;17.27;9.57;;;5.10;98.10;;;;;;10397585;28;20065;-63
2022/12/15 17:49:29;;;;;;;16.83;8.98;;;3.90;97.80;;;;;;10401323;28;20021;-62
2022/12/15 17:54:31;;;;;;;22.98;9.45;;;4.10;97.90;;;;;;10401438;28;20033;-65
2022/12/15 17:59:32;;;;;;;17.70;8.82;;;4.10;97.90;;;;;;10401649;28;20022;-63
2022/12/15 18:04:32;;;;;;;18.10;9.50;;;4.40;98.00;;;;;;10400706;28;20056;-63
2022/12/15 18:09:33;;;;;;;20.02;9.07;;;4.10;98.00;;;;;;10399711;28;20036;-66
2022/12/15 18:14:34;;;;;;;17.17;9.27;;;4.00;98.00;;;;;;10392981;28;20050;-67
2022/12/15 18:19:35;;;;;;;19.33;9.02;;;4.00;98.00;;;;;;10397208;28;20025;-63
2022/12/15 18:24:35;;;;;;;15.65;8.18;;;4.00;98.00;;;;;;10392019;28;20033;-62
2022/12/15 19:11:23;;;;;;;16.73;7.90;;;4.20;98.20;;;;;;10388874;28;20052;-66
2022/12/15 19:16:24;;;;;;;15.32;8.57;;;4.20;98.10;;;;;;10385483;28;20041;-63
2022/12/15 19:26:49;;;;;;;17.27;8.60;;;4.10;98.20;;;;;;10388836;28;20026;-63
2022/12/15 19:31:50;;;;;;;15.95;8.48;;;4.40;98.30;;;;;;10391742;28;20049;-64
2022/12/15 19:36:51;;;;;;;18.27;8.55;;;4.10;98.10;;;;;;10390408;28;20033;-67
2022/12/15 19:41:52;;;;;;;16.90;8.35;;;4.10;98.10;;;;;;10389988;28;20017;-64
2022/12/15 19:46:53;;;;;;;15.70;8.68;;;4.00;98.10;;;;;;10386674;28;20029;-64
2022/12/15 19:51:53;;;;;;;20.23;8.80;;;4.00;98.10;;;;;;10394423;28;20025;-64
2022/12/15 19:56:54;;;;;;;15.38;8.15;;;4.20;98.50;;;;;;10381992;28;20041;-65
2022/12/15 20:01:55;;;;;;;15.90;8.82;;;4.60;98.20;;;;;;10384616;28;20072;-64
2022/12/15 20:06:55;;;;;;;15.18;9.00;;;4.20;98.10;;;;;;10382202;28;20013;-63
2022/12/15 20:11:56;;;;;;;17.33;8.55;;;4.10;98.00;;;;;;10380755;28;20033;-65
2022/12/15 20:16:57;;;;;;;15.73;8.88;;;5.10;98.30;;;;;;10381123;28;20053;-69
2022/12/15 20:21:57;;;;;;;14.30;7.90;;;4.00;98.00;;;;;;10381995;28;20166;-65
2022/12/15 20:26:58;;;;;;;15.25;8.23;;;4.60;98.20;;;;;;10393986;28;20034;-65
2022/12/15 20:31:59;;;;;;;14.75;8.35;;;4.00;98.00;;;;;;10391818;28;20035;-65
2022/12/15 20:37:00;;;;;;;17.67;8.60;;;4.00;98.00;;;;;;10379712;28;20245;-63
2022/12/15 20:42:00;;;;;;;15.65;8.88;;;4.00;98.00;;;;;;10378566;28;20116;-64
2022/12/15 20:47:01;;;;;;;19.50;9.23;;;4.00;97.90;;;;;;10392196;28;20386;-64
2022/12/15 20:52:02;;;;;;;18.63;8.48;;;4.00;97.90;;;;;;10394989;28;20553;-64
2022/12/15 20:57:03;;;;;;;18.42;9.68;;;3.90;97.90;;;;;;10391499;28;20102;-69
2022/12/15 21:02:18;;;;;;;16.77;8.15;;;4.00;97.90;;;;;;10393296;28;20043;-68
2022/12/15 21:07:18;;;;;;;16.73;8.88;;;4.20;97.90;;;;;;10399826;28;20045;-64
2022/12/15 21:12:23;;;;;;;16.10;8.80;;;3.90;97.80;;;;;;10402369;28;20038;-64
2022/12/15 21:17:24;;;;;;;17.08;9.10;;;4.00;97.80;;;;;;10403845;28;20053;-65
2022/12/15 21:22:27;;;;;;;16.17;9.20;;;3.90;97.80;;;;;;10403433;28;20037;-69
2022/12/15 21:27:27;;;;;;;15.90;9.38;;;3.90;97.70;;;;;;10402224;28;20469;-65
2022/12/15 21:32:28;;;;;;;17.77;8.88;;;3.90;97.70;;;;;;10401840;28;20923;-68
2022/12/15 21:37:29;;;;;;;15.85;9.32;;;3.90;97.70;;;;;;10402625;28;20091;-65
2022/12/15 21:42:34;;;;;;;17.65;8.88;;;3.90;97.70;;;;;;10401971;28;20049;-69
2022/12/15 21:52:55;;;;;;;16.95;9.35;;;4.00;97.70;;;;;;10401458;28;20033;-65
2022/12/15 21:57:56;;;;;;;17.80;8.73;;;4.10;97.70;;;;;;10398921;28;20029;-69
2022/12/15 22:02:57;;;;;;;18.65;9.07;;;5.10;97.90;;;;;;10399436;28;20025;-65
2022/12/15 22:08:09;;;;;;;15.80;8.60;;;4.40;97.70;;;;;;10394997;28;20022;-64
2022/12/15 22:13:19;;;;;;;16.92;8.75;;;4.30;97.70;;;;;;10398099;28;20037;-64
2022/12/15 22:18:21;;;;;;;16.35;8.77;;;4.00;97.60;;;;;;10401065;28;20049;-65
2022/12/15 22:23:22;;;;;;;15.27;8.75;;;4.40;97.70;;;;;;10399716;28;20037;-65
2022/12/15 22:28:24;;;;;;;16.42;8.27;;;3.90;97.60;;;;;;10395570;28;20040;-64
2022/12/15 22:33:26;;;;;;;16.27;8.75;;;4.90;97.90;;;;;;10395731;28;20076;-65
2022/12/15 22:38:27;;;;;;;14.63;8.45;;;3.90;97.60;;;;;;10398859;28;20049;-64
2022/12/15 22:43:35;;;;;;;14.70;8.23;;;3.90;97.60;;;;;;10398450;28;20503;-63
2022/12/15 22:48:39;;;;;;;14.02;7.10;;;3.90;97.60;;;;;;10399131;28;20021;-66
2022/12/15 22:53:40;;;;;;;15.18;7.82;;;3.90;97.60;;;;;;10398765;28;20038;-65
2022/12/15 22:58:46;;;;;;;17.60;8.10;;;5.40;98.00;;;;;;10399033;28;20029;-66
2022/12/15 23:03:46;;;;;;;15.35;8.18;;;3.90;97.60;;;;;;10398743;28;20033;-65
2022/12/15 23:08:50;;;;;;;15.57;8.38;;;3.90;97.60;;;;;;10389572;28;20030;-65
2022/12/15 23:13:51;;;;;;;15.20;7.72;;;3.90;97.70;;;;;;10391755;28;20046;-64
2022/12/15 23:18:53;;;;;;;13.77;8.18;;;4.00;97.60;;;;;;10393211;28;20044;-65
2022/12/15 23:23:54;;;;;;;15.25;7.97;;;3.90;97.60;;;;;;10391605;28;20499;-66
2022/12/15 23:28:55;;;;;;;15.90;8.35;;;4.50;97.70;;;;;;10379850;28;20052;-63
2022/12/15 23:33:56;;;;;;;16.30;8.23;;;3.90;97.50;;;;;;10385534;28;20033;-64
2022/12/15 23:38:57;;;;;;;14.20;8.35;;;4.10;97.60;;;;;;10394883;28;20048;-64
2022/12/15 23:43:58;;;;;;;14.70;7.80;;;4.50;97.70;;;;;;10395560;28;20402;-66
2022/12/15 23:49:01;;;;;;;12.15;7.03;;;4.00;97.50;;;;;;10396140;28;20032;-64
2022/12/15 23:54:01;;;;;;;15.07;7.43;;;4.20;97.90;;;;;;10395184;28;20041;-65
2022/12/15 23:59:02;;;;;;;14.07;7.60;;;4.50;97.70;;;;;;10397143;28;20413;-68
